sensor_id;sensor_type;location;lat;lon;timestamp;temperature;humidity
18779;DHT22;9518;51.720;14.384;2023-07-30T00:01:39;15.20;99.90
18779;DHT22;9518;51.720;14.384;2023-07-30T00:04:06;15.20;99.90
18779;DHT22;9518;51.720;14.384;2023-07-30T00:06:33;15.30;99.90
18779;DHT22;9518;51.720;14.384;2023-07-30T00:09:01;15.40;99.90
18779;DHT22;9518;51.720;14.384;2023-07-30T00:11:28;15.50;99.90
18779;DHT22;9518;51.720;14.384;2023-07-30T00:13:55;15.50;99.90
18779;DHT22;9518;51.720;14.384;2023-07-30T00:16:22;15.70;99.90
18779;DHT22;9518;51.720;14.384;2023-07-30T00:18:49;15.60;99.90
18779;DHT22;9518;51.720;14.384;2023-07-30T00:21:16;15.70;99.90
18779;DHT22;9518;51.720;14.384;2023-07-30T00:23:43;15.70;99.90
18779;DHT22;9518;51.720;14.384;2023-07-30T00:26:11;15.70;99.90
18779;DHT22;9518;51.720;14.384;2023-07-30T00:28:38;15.70;99.90
18779;DHT22;9518;51.720;14.384;2023-07-30T00:31:05;15.60;99.90
18779;DHT22;9518;51.720;14.384;2023-07-30T00:33:32;15.60;99.90
18779;DHT22;9518;51.720;14.384;2023-07-30T00:35:59;15.60;99.90
18779;DHT22;9518;51.720;14.384;2023-07-30T00:38:26;15.60;99.90
18779;DHT22;9518;51.720;14.384;2023-07-30T00:40:53;15.60;99.90
18779;DHT22;9518;51.720;14.384;2023-07-30T00:43:22;15.60;99.90
18779;DHT22;9518;51.720;14.384;2023-07-30T00:45:49;15.70;99.90
18779;DHT22;9518;51.720;14.384;2023-07-30T00:48:16;15.70;99.90
18779;DHT22;9518;51.720;14.384;2023-07-30T00:50:43;15.60;99.90
18779;DHT22;9518;51.720;14.384;2023-07-30T00:53:14;15.50;99.90
18779;DHT22;9518;51.720;14.384;2023-07-30T00:55:41;15.60;99.90
18779;DHT22;9518;51.720;14.384;2023-07-30T00:58:09;15.60;99.90
18779;DHT22;9518;51.720;14.384;2023-07-30T01:00:38;15.60;99.90
18779;DHT22;9518;51.720;14.384;2023-07-30T01:03:05;15.60;99.90
18779;DHT22;9518;51.720;14.384;2023-07-30T01:05:33;15.60;99.90
18779;DHT22;9518;51.720;14.384;2023-07-30T01:08:00;15.60;99.90
18779;DHT22;9518;51.720;14.384;2023-07-30T01:10:28;15.60;99.90
18779;DHT22;9518;51.720;14.384;2023-07-30T01:12:57;15.40;99.90
18779;DHT22;9518;51.720;14.384;2023-07-30T01:15:24;15.40;99.90
18779;DHT22;9518;51.720;14.384;2023-07-30T01:17:53;15.40;99.90
18779;DHT22;9518;51.720;14.384;2023-07-30T01:20:21;15.40;99.90
18779;DHT22;9518;51.720;14.384;2023-07-30T01:22:49;15.20;99.90
18779;DHT22;9518;51.720;14.384;2023-07-30T01:25:17;15.20;99.90
18779;DHT22;9518;51.720;14.384;2023-07-30T01:27:48;15.00;99.90
18779;DHT22;9518;51.720;14.384;2023-07-30T01:30:18;14.90;99.90
18779;DHT22;9518;51.720;14.384;2023-07-30T01:32:48;14.80;99.90
18779;DHT22;9518;51.720;14.384;2023-07-30T01:35:16;14.80;99.90
18779;DHT22;9518;51.720;14.384;2023-07-30T01:37:44;14.80;99.90
18779;DHT22;9518;51.720;14.384;2023-07-30T01:40:13;14.70;99.90
18779;DHT22;9518;51.720;14.384;2023-07-30T01:42:40;14.70;99.90
18779;DHT22;9518;51.720;14.384;2023-07-30T01:45:08;14.70;99.90
18779;DHT22;9518;51.720;14.384;2023-07-30T01:47:34;14.60;99.90
18779;DHT22;9518;51.720;14.384;2023-07-30T01:50:01;14.70;99.90
18779;DHT22;9518;51.720;14.384;2023-07-30T01:52:29;14.70;99.90
18779;DHT22;9518;51.720;14.384;2023-07-30T01:54:56;14.60;99.90
18779;DHT22;9518;51.720;14.384;2023-07-30T01:57:25;14.60;99.90
18779;DHT22;9518;51.720;14.384;2023-07-30T01:59:52;14.50;99.90
18779;DHT22;9518;51.720;14.384;2023-07-30T02:02:19;14.50;99.90
18779;DHT22;9518;51.720;14.384;2023-07-30T02:04:46;14.50;99.90
18779;DHT22;9518;51.720;14.384;2023-07-30T02:07:13;14.50;99.90
18779;DHT22;9518;51.720;14.384;2023-07-30T02:09:40;14.40;99.90
18779;DHT22;9518;51.720;14.384;2023-07-30T02:12:08;14.40;99.90
18779;DHT22;9518;51.720;14.384;2023-07-30T02:14:36;14.40;99.90
18779;DHT22;9518;51.720;14.384;2023-07-30T02:17:04;14.40;99.90
18779;DHT22;9518;51.720;14.384;2023-07-30T02:19:31;14.30;99.90
18779;DHT22;9518;51.720;14.384;2023-07-30T02:21:58;14.30;99.90
18779;DHT22;9518;51.720;14.384;2023-07-30T02:24:25;14.30;99.90
18779;DHT22;9518;51.720;14.384;2023-07-30T02:26:52;14.20;99.90
18779;DHT22;9518;51.720;14.384;2023-07-30T02:29:19;14.20;99.90
18779;DHT22;9518;51.720;14.384;2023-07-30T02:31:47;14.10;99.90
18779;DHT22;9518;51.720;14.384;2023-07-30T02:34:14;14.10;99.90
18779;DHT22;9518;51.720;14.384;2023-07-30T02:36:41;14.00;99.90
18779;DHT22;9518;51.720;14.384;2023-07-30T02:39:08;14.00;99.90
18779;DHT22;9518;51.720;14.384;2023-07-30T02:41:35;14.00;99.90
18779;DHT22;9518;51.720;14.384;2023-07-30T02:44:02;14.00;99.90
18779;DHT22;9518;51.720;14.384;2023-07-30T02:46:29;14.00;99.90
18779;DHT22;9518;51.720;14.384;2023-07-30T02:48:57;13.90;99.90
18779;DHT22;9518;51.720;14.384;2023-07-30T02:51:24;13.90;99.90
18779;DHT22;9518;51.720;14.384;2023-07-30T02:53:52;13.90;99.90
18779;DHT22;9518;51.720;14.384;2023-07-30T02:56:19;13.90;99.90
18779;DHT22;9518;51.720;14.384;2023-07-30T02:58:46;13.90;99.90
18779;DHT22;9518;51.720;14.384;2023-07-30T03:01:13;13.90;99.90
18779;DHT22;9518;51.720;14.384;2023-07-30T03:03:40;13.90;99.90
18779;DHT22;9518;51.720;14.384;2023-07-30T03:06:08;13.90;99.90
18779;DHT22;9518;51.720;14.384;2023-07-30T03:08:35;13.90;99.90
18779;DHT22;9518;51.720;14.384;2023-07-30T03:11:04;13.90;99.90
18779;DHT22;9518;51.720;14.384;2023-07-30T03:13:31;13.90;99.90
18779;DHT22;9518;51.720;14.384;2023-07-30T03:15:58;13.90;99.90
18779;DHT22;9518;51.720;14.384;2023-07-30T03:18:24;13.90;99.90
18779;DHT22;9518;51.720;14.384;2023-07-30T03:20:53;14.00;99.90
18779;DHT22;9518;51.720;14.384;2023-07-30T03:23:25;14.00;99.90
18779;DHT22;9518;51.720;14.384;2023-07-30T03:25:51;14.00;99.90
18779;DHT22;9518;51.720;14.384;2023-07-30T03:28:18;14.00;99.90
18779;DHT22;9518;51.720;14.384;2023-07-30T03:30:45;14.00;99.90
18779;DHT22;9518;51.720;14.384;2023-07-30T03:33:12;14.00;99.90
18779;DHT22;9518;51.720;14.384;2023-07-30T03:35:39;14.00;99.90
18779;DHT22;9518;51.720;14.384;2023-07-30T03:38:06;14.10;99.90
18779;DHT22;9518;51.720;14.384;2023-07-30T03:40:34;14.20;99.90
18779;DHT22;9518;51.720;14.384;2023-07-30T03:43:01;14.30;99.90
18779;DHT22;9518;51.720;14.384;2023-07-30T03:45:28;14.50;99.90
18779;DHT22;9518;51.720;14.384;2023-07-30T03:47:55;14.60;99.90
18779;DHT22;9518;51.720;14.384;2023-07-30T03:50:22;14.50;99.90
18779;DHT22;9518;51.720;14.384;2023-07-30T03:52:49;14.50;99.90
18779;DHT22;9518;51.720;14.384;2023-07-30T03:55:16;14.40;99.90
18779;DHT22;9518;51.720;14.384;2023-07-30T03:57:44;14.40;99.90
18779;DHT22;9518;51.720;14.384;2023-07-30T04:00:11;14.50;99.90
18779;DHT22;9518;51.720;14.384;2023-07-30T04:02:38;14.50;99.90
18779;DHT22;9518;51.720;14.384;2023-07-30T04:05:06;14.70;99.90
18779;DHT22;9518;51.720;14.384;2023-07-30T04:07:33;14.90;99.90
18779;DHT22;9518;51.720;14.384;2023-07-30T04:09:59;14.90;99.90
18779;DHT22;9518;51.720;14.384;2023-07-30T04:12:26;15.10;99.90
18779;DHT22;9518;51.720;14.384;2023-07-30T04:14:55;15.10;99.90
18779;DHT22;9518;51.720;14.384;2023-07-30T04:17:22;15.10;99.90
18779;DHT22;9518;51.720;14.384;2023-07-30T04:19:49;15.10;99.90
18779;DHT22;9518;51.720;14.384;2023-07-30T04:22:16;15.20;99.90
18779;DHT22;9518;51.720;14.384;2023-07-30T04:24:42;15.30;99.90
18779;DHT22;9518;51.720;14.384;2023-07-30T04:27:09;15.40;99.90
18779;DHT22;9518;51.720;14.384;2023-07-30T04:29:36;15.50;99.90
18779;DHT22;9518;51.720;14.384;2023-07-30T04:32:06;15.70;99.90
18779;DHT22;9518;51.720;14.384;2023-07-30T04:34:33;15.70;99.90
18779;DHT22;9518;51.720;14.384;2023-07-30T04:37:00;15.80;99.90
18779;DHT22;9518;51.720;14.384;2023-07-30T04:39:27;15.80;99.90
18779;DHT22;9518;51.720;14.384;2023-07-30T04:41:54;15.90;99.90
18779;DHT22;9518;51.720;14.384;2023-07-30T04:44:21;16.00;99.90
18779;DHT22;9518;51.720;14.384;2023-07-30T04:46:48;16.00;99.90
18779;DHT22;9518;51.720;14.384;2023-07-30T04:49:16;16.20;99.90
18779;DHT22;9518;51.720;14.384;2023-07-30T04:51:44;16.30;99.90
18779;DHT22;9518;51.720;14.384;2023-07-30T04:54:11;16.40;99.90
18779;DHT22;9518;51.720;14.384;2023-07-30T04:56:38;16.50;99.90
18779;DHT22;9518;51.720;14.384;2023-07-30T04:59:05;16.60;99.90
18779;DHT22;9518;51.720;14.384;2023-07-30T05:01:32;16.70;99.90
18779;DHT22;9518;51.720;14.384;2023-07-30T05:03:59;16.80;99.90
18779;DHT22;9518;51.720;14.384;2023-07-30T05:06:27;17.00;99.90
18779;DHT22;9518;51.720;14.384;2023-07-30T05:08:54;17.10;99.90
18779;DHT22;9518;51.720;14.384;2023-07-30T05:11:21;17.20;99.90
18779;DHT22;9518;51.720;14.384;2023-07-30T05:13:48;17.10;99.90
18779;DHT22;9518;51.720;14.384;2023-07-30T05:16:15;17.10;99.90
18779;DHT22;9518;51.720;14.384;2023-07-30T05:18:42;17.10;99.90
18779;DHT22;9518;51.720;14.384;2023-07-30T05:21:09;17.20;99.90
18779;DHT22;9518;51.720;14.384;2023-07-30T05:23:38;17.20;99.90
18779;DHT22;9518;51.720;14.384;2023-07-30T05:26:05;17.20;99.90
18779;DHT22;9518;51.720;14.384;2023-07-30T05:28:32;17.20;99.90
18779;DHT22;9518;51.720;14.384;2023-07-30T05:30:59;17.40;99.90
18779;DHT22;9518;51.720;14.384;2023-07-30T05:33:26;17.60;99.90
18779;DHT22;9518;51.720;14.384;2023-07-30T05:35:53;17.60;99.90
18779;DHT22;9518;51.720;14.384;2023-07-30T05:38:20;17.60;99.90
18779;DHT22;9518;51.720;14.384;2023-07-30T05:40:48;17.60;99.90
18779;DHT22;9518;51.720;14.384;2023-07-30T05:43:15;17.60;99.90
18779;DHT22;9518;51.720;14.384;2023-07-30T05:45:43;17.70;99.90
18779;DHT22;9518;51.720;14.384;2023-07-30T05:48:10;17.80;99.90
18779;DHT22;9518;51.720;14.384;2023-07-30T05:50:37;17.70;99.90
18779;DHT22;9518;51.720;14.384;2023-07-30T05:53:04;17.80;99.90
18779;DHT22;9518;51.720;14.384;2023-07-30T05:55:31;17.90;99.90
18779;DHT22;9518;51.720;14.384;2023-07-30T05:57:59;18.00;99.90
18779;DHT22;9518;51.720;14.384;2023-07-30T06:00:26;18.20;99.90
18779;DHT22;9518;51.720;14.384;2023-07-30T06:02:53;18.40;99.90
18779;DHT22;9518;51.720;14.384;2023-07-30T06:05:20;18.60;99.90
18779;DHT22;9518;51.720;14.384;2023-07-30T06:07:47;18.80;99.90
18779;DHT22;9518;51.720;14.384;2023-07-30T06:10:14;19.00;99.90
18779;DHT22;9518;51.720;14.384;2023-07-30T06:12:41;19.10;99.90
18779;DHT22;9518;51.720;14.384;2023-07-30T06:15:10;19.10;99.90
18779;DHT22;9518;51.720;14.384;2023-07-30T06:17:37;19.20;99.90
18779;DHT22;9518;51.720;14.384;2023-07-30T06:20:05;19.50;99.90
18779;DHT22;9518;51.720;14.384;2023-07-30T06:22:32;19.50;99.90
18779;DHT22;9518;51.720;14.384;2023-07-30T06:24:59;19.60;99.90
18779;DHT22;9518;51.720;14.384;2023-07-30T06:27:27;19.80;99.90
18779;DHT22;9518;51.720;14.384;2023-07-30T06:29:54;19.90;99.90
18779;DHT22;9518;51.720;14.384;2023-07-30T06:32:22;20.00;99.90
18779;DHT22;9518;51.720;14.384;2023-07-30T06:34:49;20.00;99.90
18779;DHT22;9518;51.720;14.384;2023-07-30T06:37:16;20.00;99.90
18779;DHT22;9518;51.720;14.384;2023-07-30T06:39:43;20.00;99.90
18779;DHT22;9518;51.720;14.384;2023-07-30T06:42:10;20.00;99.90
18779;DHT22;9518;51.720;14.384;2023-07-30T06:44:37;20.20;99.90
18779;DHT22;9518;51.720;14.384;2023-07-30T06:47:04;20.20;99.90
18779;DHT22;9518;51.720;14.384;2023-07-30T06:49:32;20.40;99.90
18779;DHT22;9518;51.720;14.384;2023-07-30T06:52:01;20.50;99.90
18779;DHT22;9518;51.720;14.384;2023-07-30T06:54:29;20.60;99.90
18779;DHT22;9518;51.720;14.384;2023-07-30T06:56:56;20.80;99.90
18779;DHT22;9518;51.720;14.384;2023-07-30T06:59:23;20.90;99.90
18779;DHT22;9518;51.720;14.384;2023-07-30T07:01:50;21.10;99.90
18779;DHT22;9518;51.720;14.384;2023-07-30T07:04:17;20.90;99.90
18779;DHT22;9518;51.720;14.384;2023-07-30T07:06:47;20.70;99.90
18779;DHT22;9518;51.720;14.384;2023-07-30T07:09:14;20.50;99.90
18779;DHT22;9518;51.720;14.384;2023-07-30T07:11:40;20.60;99.90
18779;DHT22;9518;51.720;14.384;2023-07-30T07:14:07;20.70;99.90
18779;DHT22;9518;51.720;14.384;2023-07-30T07:16:34;20.90;99.90
18779;DHT22;9518;51.720;14.384;2023-07-30T07:19:01;21.00;99.90
18779;DHT22;9518;51.720;14.384;2023-07-30T07:21:29;21.00;99.90
18779;DHT22;9518;51.720;14.384;2023-07-30T07:23:57;20.90;99.90
18779;DHT22;9518;51.720;14.384;2023-07-30T07:26:24;20.80;99.90
18779;DHT22;9518;51.720;14.384;2023-07-30T07:28:51;21.00;99.90
18779;DHT22;9518;51.720;14.384;2023-07-30T07:31:18;21.10;99.90
18779;DHT22;9518;51.720;14.384;2023-07-30T07:33:45;21.00;99.90
18779;DHT22;9518;51.720;14.384;2023-07-30T07:36:12;21.00;99.90
18779;DHT22;9518;51.720;14.384;2023-07-30T07:38:40;21.10;99.90
18779;DHT22;9518;51.720;14.384;2023-07-30T07:41:14;21.30;99.90
18779;DHT22;9518;51.720;14.384;2023-07-30T07:43:41;21.70;99.90
18779;DHT22;9518;51.720;14.384;2023-07-30T07:46:08;21.90;99.90
18779;DHT22;9518;51.720;14.384;2023-07-30T07:48:39;22.10;99.90
18779;DHT22;9518;51.720;14.384;2023-07-30T07:51:07;22.30;99.90
18779;DHT22;9518;51.720;14.384;2023-07-30T07:53:34;22.40;99.90
18779;DHT22;9518;51.720;14.384;2023-07-30T07:56:01;22.50;99.90
18779;DHT22;9518;51.720;14.384;2023-07-30T07:58:30;22.50;99.90
18779;DHT22;9518;51.720;14.384;2023-07-30T08:00:58;22.80;99.90
18779;DHT22;9518;51.720;14.384;2023-07-30T08:03:25;22.90;99.90
18779;DHT22;9518;51.720;14.384;2023-07-30T08:05:53;23.00;1.00
18779;DHT22;9518;51.720;14.384;2023-07-30T08:08:20;22.90;99.90
18779;DHT22;9518;51.720;14.384;2023-07-30T08:10:47;22.90;99.90
18779;DHT22;9518;51.720;14.384;2023-07-30T08:13:14;22.90;1.00
18779;DHT22;9518;51.720;14.384;2023-07-30T08:15:43;22.90;1.00
18779;DHT22;9518;51.720;14.384;2023-07-30T08:18:10;22.90;1.00
18779;DHT22;9518;51.720;14.384;2023-07-30T08:20:37;23.00;99.90
18779;DHT22;9518;51.720;14.384;2023-07-30T08:23:04;23.10;1.00
18779;DHT22;9518;51.720;14.384;2023-07-30T08:25:32;22.90;1.00
18779;DHT22;9518;51.720;14.384;2023-07-30T08:27:59;22.90;1.00
18779;DHT22;9518;51.720;14.384;2023-07-30T08:30:26;23.00;1.00
18779;DHT22;9518;51.720;14.384;2023-07-30T08:32:54;23.30;1.00
18779;DHT22;9518;51.720;14.384;2023-07-30T08:35:21;23.60;1.00
18779;DHT22;9518;51.720;14.384;2023-07-30T08:37:48;24.00;1.00
18779;DHT22;9518;51.720;14.384;2023-07-30T08:40:15;24.00;1.00
18779;DHT22;9518;51.720;14.384;2023-07-30T08:42:42;23.80;1.00
18779;DHT22;9518;51.720;14.384;2023-07-30T08:45:09;23.60;1.00
18779;DHT22;9518;51.720;14.384;2023-07-30T08:47:40;23.70;1.00
18779;DHT22;9518;51.720;14.384;2023-07-30T08:50:09;23.90;1.00
18779;DHT22;9518;51.720;14.384;2023-07-30T08:52:36;24.20;1.00
18779;DHT22;9518;51.720;14.384;2023-07-30T08:55:04;24.40;1.00
18779;DHT22;9518;51.720;14.384;2023-07-30T08:57:31;24.40;1.00
18779;DHT22;9518;51.720;14.384;2023-07-30T09:00:02;24.70;1.00
18779;DHT22;9518;51.720;14.384;2023-07-30T09:02:33;25.10;1.00
18779;DHT22;9518;51.720;14.384;2023-07-30T09:05:01;25.30;1.00
18779;DHT22;9518;51.720;14.384;2023-07-30T09:07:30;25.20;1.00
18779;DHT22;9518;51.720;14.384;2023-07-30T09:09:58;25.00;1.00
18779;DHT22;9518;51.720;14.384;2023-07-30T09:12:29;24.90;1.00
18779;DHT22;9518;51.720;14.384;2023-07-30T09:14:56;24.90;1.00
18779;DHT22;9518;51.720;14.384;2023-07-30T09:17:23;25.00;1.00
18779;DHT22;9518;51.720;14.384;2023-07-30T09:19:50;25.20;1.00
18779;DHT22;9518;51.720;14.384;2023-07-30T09:22:24;25.50;1.00
18779;DHT22;9518;51.720;14.384;2023-07-30T09:24:54;25.90;1.00
18779;DHT22;9518;51.720;14.384;2023-07-30T09:27:22;26.60;1.00
18779;DHT22;9518;51.720;14.384;2023-07-30T09:29:51;27.00;1.00
18779;DHT22;9518;51.720;14.384;2023-07-30T09:32:19;26.60;1.00
18779;DHT22;9518;51.720;14.384;2023-07-30T09:34:46;26.10;1.00
18779;DHT22;9518;51.720;14.384;2023-07-30T09:37:14;26.00;1.00
18779;DHT22;9518;51.720;14.384;2023-07-30T09:39:41;26.30;1.00
18779;DHT22;9518;51.720;14.384;2023-07-30T09:42:10;26.40;1.00
18779;DHT22;9518;51.720;14.384;2023-07-30T09:44:38;26.60;1.00
18779;DHT22;9518;51.720;14.384;2023-07-30T09:47:09;26.50;1.00
18779;DHT22;9518;51.720;14.384;2023-07-30T09:49:37;26.50;1.00
18779;DHT22;9518;51.720;14.384;2023-07-30T09:52:05;26.80;1.00
18779;DHT22;9518;51.720;14.384;2023-07-30T09:54:33;26.90;1.00
18779;DHT22;9518;51.720;14.384;2023-07-30T09:57:01;27.00;1.00
18779;DHT22;9518;51.720;14.384;2023-07-30T09:59:30;27.70;1.00
18779;DHT22;9518;51.720;14.384;2023-07-30T10:01:58;27.40;1.00
18779;DHT22;9518;51.720;14.384;2023-07-30T10:04:27;27.60;1.00
18779;DHT22;9518;51.720;14.384;2023-07-30T10:06:58;26.80;1.00
18779;DHT22;9518;51.720;14.384;2023-07-30T10:09:30;26.30;1.00
18779;DHT22;9518;51.720;14.384;2023-07-30T10:11:58;25.90;1.00
18779;DHT22;9518;51.720;14.384;2023-07-30T10:14:27;25.90;1.00
18779;DHT22;9518;51.720;14.384;2023-07-30T10:17:00;26.30;1.00
18779;DHT22;9518;51.720;14.384;2023-07-30T10:19:28;26.50;1.00
18779;DHT22;9518;51.720;14.384;2023-07-30T10:24:55;26.00;1.00
18779;DHT22;9518;51.720;14.384;2023-07-30T10:27:24;25.80;1.00
18779;DHT22;9518;51.720;14.384;2023-07-30T10:30:08;25.90;1.00
18779;DHT22;9518;51.720;14.384;2023-07-30T10:32:41;25.60;1.00
18779;DHT22;9518;51.720;14.384;2023-07-30T10:35:09;26.00;1.00
18779;DHT22;9518;51.720;14.384;2023-07-30T10:37:35;26.50;1.00
18779;DHT22;9518;51.720;14.384;2023-07-30T10:40:16;26.60;1.00
18779;DHT22;9518;51.720;14.384;2023-07-30T10:42:44;26.80;1.00
18779;DHT22;9518;51.720;14.384;2023-07-30T10:45:11;26.70;1.00
18779;DHT22;9518;51.720;14.384;2023-07-30T10:47:42;26.40;1.00
18779;DHT22;9518;51.720;14.384;2023-07-30T10:50:09;26.50;1.00
18779;DHT22;9518;51.720;14.384;2023-07-30T10:52:38;27.10;1.00
18779;DHT22;9518;51.720;14.384;2023-07-30T10:55:06;27.70;1.00
18779;DHT22;9518;51.720;14.384;2023-07-30T10:57:33;28.00;1.00
18779;DHT22;9518;51.720;14.384;2023-07-30T11:00:00;27.70;1.00
18779;DHT22;9518;51.720;14.384;2023-07-30T11:02:28;27.10;1.00
18779;DHT22;9518;51.720;14.384;2023-07-30T11:04:57;26.50;1.00
18779;DHT22;9518;51.720;14.384;2023-07-30T11:07:24;26.00;1.00
18779;DHT22;9518;51.720;14.384;2023-07-30T11:09:59;25.80;1.00
18779;DHT22;9518;51.720;14.384;2023-07-30T11:12:27;25.70;1.00
18779;DHT22;9518;51.720;14.384;2023-07-30T11:15:00;25.60;1.00
18779;DHT22;9518;51.720;14.384;2023-07-30T11:17:28;25.30;1.00
18779;DHT22;9518;51.720;14.384;2023-07-30T11:19:56;25.10;1.00
18779;DHT22;9518;51.720;14.384;2023-07-30T11:22:33;25.10;1.00
18779;DHT22;9518;51.720;14.384;2023-07-30T11:25:00;25.20;1.00
18779;DHT22;9518;51.720;14.384;2023-07-30T11:27:45;25.90;1.00
18779;DHT22;9518;51.720;14.384;2023-07-30T11:30:12;26.90;1.00
18779;DHT22;9518;51.720;14.384;2023-07-30T11:32:39;28.10;1.00
18779;DHT22;9518;51.720;14.384;2023-07-30T11:35:08;29.20;1.00
18779;DHT22;9518;51.720;14.384;2023-07-30T11:37:36;29.10;1.00
18779;DHT22;9518;51.720;14.384;2023-07-30T11:40:07;28.80;1.00
18779;DHT22;9518;51.720;14.384;2023-07-30T11:42:34;27.80;1.00
18779;DHT22;9518;51.720;14.384;2023-07-30T11:45:17;27.20;1.00
18779;DHT22;9518;51.720;14.384;2023-07-30T11:47:44;27.40;1.00
18779;DHT22;9518;51.720;14.384;2023-07-30T11:50:12;28.00;1.00
18779;DHT22;9518;51.720;14.384;2023-07-30T11:52:51;28.40;1.00
18779;DHT22;9518;51.720;14.384;2023-07-30T11:55:18;28.60;1.00
18779;DHT22;9518;51.720;14.384;2023-07-30T11:57:46;28.80;1.00
18779;DHT22;9518;51.720;14.384;2023-07-30T12:00:14;29.10;1.00
18779;DHT22;9518;51.720;14.384;2023-07-30T12:02:41;29.50;1.00
18779;DHT22;9518;51.720;14.384;2023-07-30T12:05:11;29.20;1.00
18779;DHT22;9518;51.720;14.384;2023-07-30T12:07:41;28.90;1.00
18779;DHT22;9518;51.720;14.384;2023-07-30T12:10:09;29.20;1.00
18779;DHT22;9518;51.720;14.384;2023-07-30T12:12:43;29.20;99.90
18779;DHT22;9518;51.720;14.384;2023-07-30T12:15:10;29.10;99.90
18779;DHT22;9518;51.720;14.384;2023-07-30T12:17:38;28.30;99.90
18779;DHT22;9518;51.720;14.384;2023-07-30T12:20:06;28.90;99.90
18779;DHT22;9518;51.720;14.384;2023-07-30T12:22:37;29.70;99.90
18779;DHT22;9518;51.720;14.384;2023-07-30T12:25:05;30.10;99.90
18779;DHT22;9518;51.720;14.384;2023-07-30T12:27:33;29.90;99.90
18779;DHT22;9518;51.720;14.384;2023-07-30T12:30:00;29.80;99.90
18779;DHT22;9518;51.720;14.384;2023-07-30T12:32:27;30.20;99.90
18779;DHT22;9518;51.720;14.384;2023-07-30T12:34:55;29.60;99.90
18779;DHT22;9518;51.720;14.384;2023-07-30T12:37:22;29.60;99.90
18779;DHT22;9518;51.720;14.384;2023-07-30T12:39:50;29.70;99.90
18779;DHT22;9518;51.720;14.384;2023-07-30T12:42:17;29.40;99.90
18779;DHT22;9518;51.720;14.384;2023-07-30T12:44:44;29.60;99.90
18779;DHT22;9518;51.720;14.384;2023-07-30T12:47:11;29.70;99.90
18779;DHT22;9518;51.720;14.384;2023-07-30T12:49:38;29.60;99.90
18779;DHT22;9518;51.720;14.384;2023-07-30T12:52:06;29.70;99.90
18779;DHT22;9518;51.720;14.384;2023-07-30T12:54:33;30.00;99.90
18779;DHT22;9518;51.720;14.384;2023-07-30T12:57:01;30.40;99.90
18779;DHT22;9518;51.720;14.384;2023-07-30T12:59:28;30.10;99.90
18779;DHT22;9518;51.720;14.384;2023-07-30T13:01:56;29.80;99.90
18779;DHT22;9518;51.720;14.384;2023-07-30T13:04:24;29.70;99.90
18779;DHT22;9518;51.720;14.384;2023-07-30T13:06:52;29.50;99.90
18779;DHT22;9518;51.720;14.384;2023-07-30T13:09:19;30.10;99.90
18779;DHT22;9518;51.720;14.384;2023-07-30T13:11:47;30.60;99.90
18779;DHT22;9518;51.720;14.384;2023-07-30T13:14:15;31.00;99.90
18779;DHT22;9518;51.720;14.384;2023-07-30T13:16:42;31.70;99.90
18779;DHT22;9518;51.720;14.384;2023-07-30T13:19:11;31.70;99.90
18779;DHT22;9518;51.720;14.384;2023-07-30T13:21:38;31.60;99.90
18779;DHT22;9518;51.720;14.384;2023-07-30T13:24:08;31.30;99.90
18779;DHT22;9518;51.720;14.384;2023-07-30T13:26:35;30.50;99.90
18779;DHT22;9518;51.720;14.384;2023-07-30T13:29:04;30.20;99.90
18779;DHT22;9518;51.720;14.384;2023-07-30T13:31:32;30.10;99.90
18779;DHT22;9518;51.720;14.384;2023-07-30T13:33:59;30.00;99.90
18779;DHT22;9518;51.720;14.384;2023-07-30T13:36:26;30.20;99.90
18779;DHT22;9518;51.720;14.384;2023-07-30T13:38:53;30.70;99.90
18779;DHT22;9518;51.720;14.384;2023-07-30T13:41:20;30.70;99.90
18779;DHT22;9518;51.720;14.384;2023-07-30T13:43:47;31.20;99.90
18779;DHT22;9518;51.720;14.384;2023-07-30T13:46:14;31.40;99.90
18779;DHT22;9518;51.720;14.384;2023-07-30T13:48:42;31.50;99.90
18779;DHT22;9518;51.720;14.384;2023-07-30T13:51:09;31.20;99.90
18779;DHT22;9518;51.720;14.384;2023-07-30T13:53:36;31.00;99.90
18779;DHT22;9518;51.720;14.384;2023-07-30T13:56:06;30.90;99.90
18779;DHT22;9518;51.720;14.384;2023-07-30T13:58:33;30.50;99.90
18779;DHT22;9518;51.720;14.384;2023-07-30T14:01:00;30.10;99.90
18779;DHT22;9518;51.720;14.384;2023-07-30T14:03:28;29.80;99.90
18779;DHT22;9518;51.720;14.384;2023-07-30T14:05:56;30.00;99.90
18779;DHT22;9518;51.720;14.384;2023-07-30T14:08:23;30.10;99.90
18779;DHT22;9518;51.720;14.384;2023-07-30T14:10:50;30.20;99.90
18779;DHT22;9518;51.720;14.384;2023-07-30T14:13:17;30.10;99.90
18779;DHT22;9518;51.720;14.384;2023-07-30T14:15:44;29.80;99.90
18779;DHT22;9518;51.720;14.384;2023-07-30T14:18:12;29.40;99.90
18779;DHT22;9518;51.720;14.384;2023-07-30T14:20:39;29.20;99.90
18779;DHT22;9518;51.720;14.384;2023-07-30T14:23:07;29.40;99.90
18779;DHT22;9518;51.720;14.384;2023-07-30T14:25:35;30.20;99.90
18779;DHT22;9518;51.720;14.384;2023-07-30T14:28:02;30.50;99.90
18779;DHT22;9518;51.720;14.384;2023-07-30T14:30:29;30.20;99.90
18779;DHT22;9518;51.720;14.384;2023-07-30T14:32:56;29.50;99.90
18779;DHT22;9518;51.720;14.384;2023-07-30T14:35:23;29.40;99.90
18779;DHT22;9518;51.720;14.384;2023-07-30T14:37:50;30.00;99.90
18779;DHT22;9518;51.720;14.384;2023-07-30T14:40:19;30.40;99.90
18779;DHT22;9518;51.720;14.384;2023-07-30T14:42:46;30.40;99.90
18779;DHT22;9518;51.720;14.384;2023-07-30T14:45:13;30.10;99.90
18779;DHT22;9518;51.720;14.384;2023-07-30T14:47:40;29.70;99.90
18779;DHT22;9518;51.720;14.384;2023-07-30T14:50:07;29.20;99.90
18779;DHT22;9518;51.720;14.384;2023-07-30T14:52:34;28.90;99.90
18779;DHT22;9518;51.720;14.384;2023-07-30T14:55:01;28.60;99.90
18779;DHT22;9518;51.720;14.384;2023-07-30T14:57:30;28.30;99.90
18779;DHT22;9518;51.720;14.384;2023-07-30T14:59:58;27.60;99.90
18779;DHT22;9518;51.720;14.384;2023-07-30T15:02:26;27.10;99.90
18779;DHT22;9518;51.720;14.384;2023-07-30T15:04:53;26.70;99.90
18779;DHT22;9518;51.720;14.384;2023-07-30T15:07:20;26.40;99.90
18779;DHT22;9518;51.720;14.384;2023-07-30T15:09:51;26.30;99.90
18779;DHT22;9518;51.720;14.384;2023-07-30T15:12:18;26.30;99.90
18779;DHT22;9518;51.720;14.384;2023-07-30T15:14:46;26.20;99.90
18779;DHT22;9518;51.720;14.384;2023-07-30T15:17:13;26.10;99.90
18779;DHT22;9518;51.720;14.384;2023-07-30T15:19:40;26.00;99.90
18779;DHT22;9518;51.720;14.384;2023-07-30T15:22:07;25.80;99.90
18779;DHT22;9518;51.720;14.384;2023-07-30T15:24:34;25.50;99.90
18779;DHT22;9518;51.720;14.384;2023-07-30T15:27:01;25.20;99.90
18779;DHT22;9518;51.720;14.384;2023-07-30T15:29:28;25.00;99.90
18779;DHT22;9518;51.720;14.384;2023-07-30T15:31:56;24.80;99.90
18779;DHT22;9518;51.720;14.384;2023-07-30T15:34:23;24.70;99.90
18779;DHT22;9518;51.720;14.384;2023-07-30T15:36:50;24.40;99.90
18779;DHT22;9518;51.720;14.384;2023-07-30T15:39:19;24.20;99.90
18779;DHT22;9518;51.720;14.384;2023-07-30T15:41:47;24.00;99.90